CYCD

Nanaimo Airport

Nanaimo, , Canada
METAR CYCD 100500Z 27003KT 2 1/2SM -RA BR MIFG VCFG OVC006 05/05 A3005 RMK SF8 LAST STFD OBS/NEXT 101400Z SLP179
Observed Flight Rules
Dec-10 @ 05:00 UTC (an hour ago) Instrument Flight Rules
Wind Visibility Clouds Conditions
270° at 3 knots 2 1/2 miles
  • Overcast at 600' AGL
  • Light Rain
  • Mist
  • Shallow
  • Fog
  • Area Fog
Temperatures Readings
Current 5°C / 41°F
Dewpoint 5°C / 41°F
Humidity 100%
Altimeter 30.05" Hg
Pressure 1017.9 hPa
Elevation 30
METAR CYCD 100500Z 27003KT 2 1/2SM -RA BR MIFG VCFG OVC006 05/05 A3005 RMK SF8 LAST STFD OBS/NEXT 101400Z SLP179
Observed Flight Rules
Dec-10 @ 05:00 UTC
(an hour ago)
IFR
Wind Visibility
270° at 3 knots 2 1/2 miles
Clouds
  • Overcast at 600' AGL
Conditions
  • Light Rain
  • Mist
  • Shallow
  • Fog
  • Area Fog
Temperature Dewpoint
5°C / 41°F 5°C / 41°F
Humidity Altimeter Pressure
100% 30.05" Hg 1017.9 hPa